Time;durP1;ratioP1;P1;durP2;ratioP2;P2;SDS_P1;SDS_P2;PMS_P1;PMS_P2;Temp;Humidity;BMP_temperature;BMP_pressure;BME280_temperature;BME280_humidity;BME280_pressure;Samples;Min_cycle;Max_cycle;Signal;HPM_P1;HPM_P2
2023/09/12 00:01:56;;;;;;;19.48;6.80;;;;;;;;;;5050933;28;20060;-69
2023/09/12 00:04:21;;;;;;;26.30;7.17;;;;;;;;;;5048132;28;20441;-68
2023/09/12 00:06:46;;;;;;;23.13;7.50;;;;;;;;;;5048686;28;20269;-69
2023/09/12 00:09:12;;;;;;;26.65;6.70;;;;;;;;;;5049241;28;20499;-66
2023/09/12 00:11:37;;;;;;;21.55;6.10;;;;;;;;;;5049150;28;20029;-69
2023/09/12 00:14:02;;;;;;;13.05;6.85;;;;;;;;;;5047650;28;20616;-68
2023/09/12 00:16:28;;;;;;;20.83;7.15;;;;;;;;;;5048680;28;20426;-69
2023/09/12 00:18:53;;;;;;;20.38;8.63;;;;;;;;;;5047160;28;20032;-68
2023/09/12 00:21:18;;;;;;;17.27;6.88;;;;;;;;;;5049076;28;20021;-68
2023/09/12 00:23:43;;;;;;;21.42;7.00;;;;;;;;;;5048574;28;20436;-68
2023/09/12 00:26:09;;;;;;;18.17;7.20;;;;;;;;;;5048492;28;20043;-67
2023/09/12 00:28:34;;;;;;;25.33;7.82;;;;;;;;;;5048487;28;20013;-66
2023/09/12 00:30:59;;;;;;;20.50;8.02;;;;;;;;;;5048821;28;20017;-68
2023/09/12 00:33:24;;;;;;;13.52;7.60;;;;;;;;;;5048233;28;20027;-68
2023/09/12 00:35:52;;;;;;;22.55;7.28;;;;;;;;;;5048949;28;20024;-68
2023/09/12 00:38:18;;;;;;;22.95;8.80;;;;;;;;;;5048175;28;20068;-67
2023/09/12 00:40:43;;;;;;;18.02;7.28;;;;;;;;;;5050228;28;20083;-68
2023/09/12 00:43:08;;;;;;;22.03;7.43;;;;;;;;;;5051924;28;20028;-68
2023/09/12 00:45:33;;;;;;;16.08;7.53;;;;;;;;;;5052038;28;20320;-67
2023/09/12 00:48:03;;;;;;;20.73;7.72;;;;;;;;;;5051582;28;20028;-69
2023/09/12 00:50:33;;;;;;;17.13;7.15;;;;;;;;;;5052404;28;20021;-68
2023/09/12 00:52:59;;;;;;;19.85;7.70;;;;;;;;;;5051818;28;20025;-69
2023/09/12 00:55:24;;;;;;;16.13;7.15;;;;;;;;;;5051694;28;20020;-69
2023/09/12 00:57:51;;;;;;;22.95;6.80;;;;;;;;;;5049294;28;20029;-68
2023/09/12 01:00:16;;;;;;;21.80;7.35;;;;;;;;;;5051947;28;20029;-67
2023/09/12 01:02:42;;;;;;;17.48;6.82;;;;;;;;;;5051517;28;20481;-67
2023/09/12 01:05:08;;;;;;;19.17;7.32;;;;;;;;;;5052230;28;20021;-67
2023/09/12 01:07:34;;;;;;;12.68;6.90;;;;;;;;;;5051238;28;20364;-66
2023/09/12 01:09:59;;;;;;;16.42;7.22;;;;;;;;;;5050347;28;20363;-67
2023/09/12 01:12:24;;;;;;;18.77;7.45;;;;;;;;;;5051330;28;20052;-68
2023/09/12 01:14:50;;;;;;;14.05;7.25;;;;;;;;;;5051666;28;20052;-69
2023/09/12 01:17:15;;;;;;;16.23;6.93;;;;;;;;;;5047177;28;20034;-69
2023/09/12 01:19:40;;;;;;;20.25;7.00;;;;;;;;;;5047889;28;20021;-66
2023/09/12 01:22:24;;;;;;;21.40;7.25;;;;;;;;;;5065360;22;20017;-73
2023/09/12 01:25:03;;;;;;;21.52;6.80;;;;;;;;;;5028672;28;20467;-72
2023/09/12 01:27:38;;;;;;;16.27;6.68;;;;;;;;;;5025266;28;20025;-73
2023/09/12 01:30:04;;;;;;;22.30;7.43;;;;;;;;;;5029928;28;20478;-72
2023/09/12 01:32:31;;;;;;;17.77;6.82;;;;;;;;;;5028857;28;20033;-72
2023/09/12 01:34:56;;;;;;;17.80;6.55;;;;;;;;;;5023505;28;20061;-68
2023/09/12 01:37:21;;;;;;;13.77;6.88;;;;;;;;;;5010030;28;20444;-71
2023/09/12 01:39:47;;;;;;;28.13;8.27;;;;;;;;;;5008184;28;20017;-68
2023/09/12 01:42:14;;;;;;;15.70;6.60;;;;;;;;;;5009224;28;20030;-71
2023/09/12 01:44:40;;;;;;;22.17;7.15;;;;;;;;;;5010280;28;20014;-71
2023/09/12 01:47:06;;;;;;;18.80;7.15;;;;;;;;;;5009071;28;20129;-68
2023/09/12 01:49:32;;;;;;;22.73;8.15;;;;;;;;;;5009937;28;20519;-72
2023/09/12 01:51:59;;;;;;;13.43;6.80;;;;;;;;;;5009552;28;20045;-72
2023/09/12 01:54:25;;;;;;;20.38;7.32;;;;;;;;;;5010352;28;20052;-71
2023/09/12 01:56:50;;;;;;;24.33;6.60;;;;;;;;;;5009161;28;20048;-71
2023/09/12 01:59:15;;;;;;;11.50;5.60;;;;;;;;;;5009916;28;20034;-69
2023/09/12 02:01:42;;;;;;;13.32;5.45;;;;;;;;;;5009637;28;20018;-72
2023/09/12 02:04:08;;;;;;;12.63;6.38;;;;;;;;;;5010636;28;20061;-72
2023/09/12 02:06:34;;;;;;;19.83;6.40;;;;;;;;;;5010064;28;20037;-73
2023/09/12 02:08:59;;;;;;;11.02;6.10;;;;;;;;;;5011907;28;20033;-73
2023/09/12 02:11:26;;;;;;;13.65;6.13;;;;;;;;;;5010871;28;20072;-72
2023/09/12 02:13:51;;;;;;;13.90;6.32;;;;;;;;;;5009646;28;20099;-74
2023/09/12 02:16:16;;;;;;;17.48;6.95;;;;;;;;;;5009665;28;20053;-71
2023/09/12 02:18:41;;;;;;;21.38;7.05;;;;;;;;;;5010221;28;20017;-74
2023/09/12 02:21:07;;;;;;;14.95;6.50;;;;;;;;;;5026957;28;20052;-71
2023/09/12 02:23:32;;;;;;;18.85;6.45;;;;;;;;;;5010475;28;20509;-73
2023/09/12 02:25:57;;;;;;;25.88;7.25;;;;;;;;;;5008975;28;20490;-71
2023/09/12 02:28:22;;;;;;;14.88;6.38;;;;;;;;;;5009835;28;20080;-71
2023/09/12 02:30:47;;;;;;;11.68;5.90;;;;;;;;;;5008849;28;20459;-69
2023/09/12 02:33:13;;;;;;;15.48;7.07;;;;;;;;;;5009112;28;20529;-71
2023/09/12 02:35:38;;;;;;;15.52;6.25;;;;;;;;;;5008537;28;20064;-70
2023/09/12 02:38:03;;;;;;;20.30;6.88;;;;;;;;;;5008850;28;20021;-72
2023/09/12 02:40:28;;;;;;;15.48;7.00;;;;;;;;;;5007239;28;20053;-72
2023/09/12 02:42:54;;;;;;;21.25;7.00;;;;;;;;;;5008315;28;20525;-71
2023/09/12 02:45:19;;;;;;;18.08;7.38;;;;;;;;;;5008323;28;20495;-73
2023/09/12 02:47:46;;;;;;;15.05;6.80;;;;;;;;;;5010796;28;20052;-70
2023/09/12 02:50:11;;;;;;;17.75;7.47;;;;;;;;;;5007972;28;20123;-73
2023/09/12 02:52:36;;;;;;;15.68;7.40;;;;;;;;;;5010519;28;20058;-71
2023/09/12 02:55:02;;;;;;;14.55;7.50;;;;;;;;;;5008422;28;20116;-74
2023/09/12 02:57:27;;;;;;;16.90;7.20;;;;;;;;;;5008114;28;20037;-70
2023/09/12 02:59:52;;;;;;;13.60;7.30;;;;;;;;;;5008729;28;20024;-73
2023/09/12 03:02:18;;;;;;;26.30;7.83;;;;;;;;;;5007981;28;20069;-73
2023/09/12 03:04:43;;;;;;;14.65;7.70;;;;;;;;;;5007445;28;20381;-70
2023/09/12 03:07:08;;;;;;;17.50;7.75;;;;;;;;;;5007895;28;20428;-73
2023/09/12 03:09:33;;;;;;;18.48;7.65;;;;;;;;;;5008127;28;20121;-71
2023/09/12 03:12:00;;;;;;;19.25;7.45;;;;;;;;;;5008168;28;20524;-71
2023/09/12 03:14:27;;;;;;;15.75;7.45;;;;;;;;;;5008214;28;20537;-69
2023/09/12 03:16:53;;;;;;;20.15;7.97;;;;;;;;;;5007615;28;20120;-73
2023/09/12 03:19:18;;;;;;;14.70;7.68;;;;;;;;;;5007934;28;20465;-71
2023/09/12 03:21:43;;;;;;;20.42;7.13;;;;;;;;;;5008443;28;20098;-70
2023/09/12 03:24:08;;;;;;;13.85;7.65;;;;;;;;;;5008093;28;20037;-72
2023/09/12 03:26:34;;;;;;;21.17;8.00;;;;;;;;;;5008041;28;20032;-71
2023/09/12 03:28:59;;;;;;;25.20;8.80;;;;;;;;;;5008785;28;20048;-73
2023/09/12 03:31:25;;;;;;;18.58;8.73;;;;;;;;;;5008220;28;20415;-73
2023/09/12 03:33:51;;;;;;;16.15;8.07;;;;;;;;;;5017352;28;20017;-74
2023/09/12 03:36:17;;;;;;;15.32;8.32;;;;;;;;;;5011425;28;20514;-71
2023/09/12 03:38:42;;;;;;;20.35;8.43;;;;;;;;;;5007710;28;20048;-70
2023/09/12 03:41:08;;;;;;;17.98;8.35;;;;;;;;;;5006243;28;20116;-72
2023/09/12 03:43:33;;;;;;;12.65;7.20;;;;;;;;;;5007530;28;20014;-69
2023/09/12 03:45:58;;;;;;;25.63;8.90;;;;;;;;;;5008145;28;20475;-74
2023/09/12 03:48:24;;;;;;;18.65;8.27;;;;;;;;;;5006551;28;20386;-73
2023/09/12 03:50:49;;;;;;;12.70;6.93;;;;;;;;;;5008116;28;20022;-73
2023/09/12 03:53:15;;;;;;;14.93;8.02;;;;;;;;;;5017077;28;20045;-71
2023/09/12 03:55:40;;;;;;;19.55;7.72;;;;;;;;;;5011706;28;20133;-73
2023/09/12 03:58:05;;;;;;;18.73;7.45;;;;;;;;;;5007419;28;20459;-73
2023/09/12 04:00:31;;;;;;;17.17;7.28;;;;;;;;;;5007356;28;20025;-73
2023/09/12 04:02:56;;;;;;;13.48;7.30;;;;;;;;;;5007920;28;20201;-72
2023/09/12 04:05:21;;;;;;;15.30;7.63;;;;;;;;;;5006962;28;20064;-70
2023/09/12 04:07:46;;;;;;;14.68;7.72;;;;;;;;;;5022286;28;20026;-72
2023/09/12 04:10:12;;;;;;;15.10;7.75;;;;;;;;;;5007816;28;20121;-69
2023/09/12 04:12:37;;;;;;;13.98;7.38;;;;;;;;;;5007600;28;20376;-72
2023/09/12 04:15:02;;;;;;;18.25;8.48;;;;;;;;;;5009357;28;20065;-70
2023/09/12 04:17:27;;;;;;;15.13;7.75;;;;;;;;;;5010624;28;20022;-72
2023/09/12 04:19:53;;;;;;;18.00;7.07;;;;;;;;;;5012770;28;20013;-72
2023/09/12 04:22:18;;;;;;;20.30;10.07;;;;;;;;;;5011362;28;20046;-71
2023/09/12 04:24:43;;;;;;;14.85;7.15;;;;;;;;;;5012150;28;20079;-69
2023/09/12 04:27:08;;;;;;;15.13;7.50;;;;;;;;;;5011277;28;20050;-71
2023/09/12 04:29:34;;;;;;;16.25;8.35;;;;;;;;;;5011615;28;20088;-71
2023/09/12 04:32:01;;;;;;;17.20;7.43;;;;;;;;;;5011006;28;20101;-69
2023/09/12 04:34:26;;;;;;;16.08;8.00;;;;;;;;;;5011902;28;20025;-73
2023/09/12 04:36:52;;;;;;;16.17;7.60;;;;;;;;;;5010767;28;20030;-70
2023/09/12 04:39:17;;;;;;;21.85;7.63;;;;;;;;;;5010509;28;20059;-71
2023/09/12 04:41:42;;;;;;;18.75;7.15;;;;;;;;;;5010317;28;20021;-71
2023/09/12 04:44:07;;;;;;;18.30;7.85;;;;;;;;;;5011597;28;20092;-72
2023/09/12 04:46:33;;;;;;;13.93;7.43;;;;;;;;;;5009988;28;20168;-71
2023/09/12 04:48:59;;;;;;;19.35;8.75;;;;;;;;;;5009812;28;20041;-70
2023/09/12 04:51:24;;;;;;;15.57;8.60;;;;;;;;;;5011200;28;20479;-71
2023/09/12 04:53:51;;;;;;;15.82;7.93;;;;;;;;;;5010193;28;20033;-70
2023/09/12 04:56:17;;;;;;;30.00;9.90;;;;;;;;;;4998414;28;20022;-71
2023/09/12 04:58:42;;;;;;;18.92;9.18;;;;;;;;;;5006307;28;20675;-68
2023/09/12 05:01:07;;;;;;;14.52;7.68;;;;;;;;;;5009086;28;20105;-74
2023/09/12 05:03:33;;;;;;;16.70;8.75;;;;;;;;;;5019844;28;20069;-72
2023/09/12 05:05:58;;;;;;;28.13;9.35;;;;;;;;;;5010887;28;20022;-72
2023/09/12 05:08:24;;;;;;;15.13;7.65;;;;;;;;;;5010171;28;20014;-74
2023/09/12 05:10:49;;;;;;;15.50;7.95;;;;;;;;;;5008313;28;20025;-72
2023/09/12 05:13:15;;;;;;;13.98;7.20;;;;;;;;;;5004390;28;20238;-74
2023/09/12 05:15:40;;;;;;;18.95;8.57;;;;;;;;;;5005055;28;20456;-74
2023/09/12 05:18:06;;;;;;;18.95;8.25;;;;;;;;;;5005135;28;20026;-74
2023/09/12 05:20:31;;;;;;;17.70;7.88;;;;;;;;;;5010828;28;20518;-71
2023/09/12 05:22:56;;;;;;;13.40;8.40;;;;;;;;;;5010331;28;20061;-72
2023/09/12 05:25:22;;;;;;;25.35;8.40;;;;;;;;;;5009446;28;20132;-71
2023/09/12 05:27:47;;;;;;;18.73;8.23;;;;;;;;;;5009277;28;20014;-70
2023/09/12 05:30:12;;;;;;;17.90;8.27;;;;;;;;;;5008593;28;20021;-74
2023/09/12 05:32:38;;;;;;;18.33;8.13;;;;;;;;;;5004741;28;20030;-72
2023/09/12 05:35:04;;;;;;;20.95;7.85;;;;;;;;;;5003019;28;20021;-73
2023/09/12 05:37:29;;;;;;;19.45;8.65;;;;;;;;;;5009420;28;20064;-69
2023/09/12 05:39:54;;;;;;;18.02;8.05;;;;;;;;;;5009774;28;20109;-71
2023/09/12 05:42:20;;;;;;;19.20;7.45;;;;;;;;;;5013918;28;20095;-72
2023/09/12 05:44:46;;;;;;;28.38;8.85;;;;;;;;;;5009326;28;20430;-71
2023/09/12 05:47:11;;;;;;;17.73;7.85;;;;;;;;;;5009799;28;20523;-73
2023/09/12 05:49:36;;;;;;;26.38;8.40;;;;;;;;;;5007972;28;20508;-68
2023/09/12 05:52:02;;;;;;;17.90;8.23;;;;;;;;;;5009246;28;20033;-73
2023/09/12 05:54:27;;;;;;;21.67;8.60;;;;;;;;;;5022558;28;20100;-68
2023/09/12 05:56:53;;;;;;;14.32;8.43;;;;;;;;;;5014315;28;20032;-73
2023/09/12 05:59:19;;;;;;;26.38;8.38;;;;;;;;;;5015669;28;20068;-73
2023/09/12 06:01:45;;;;;;;26.25;9.02;;;;;;;;;;5021651;28;20018;-73
2023/09/12 06:04:10;;;;;;;16.58;8.23;;;;;;;;;;5014729;28;20021;-72
2023/09/12 06:06:35;;;;;;;28.08;8.88;;;;;;;;;;5022090;28;20045;-73
2023/09/12 06:09:00;;;;;;;17.63;8.35;;;;;;;;;;5022938;28;20022;-72
2023/09/12 06:11:26;;;;;;;17.77;8.75;;;;;;;;;;5015979;28;20014;-70
2023/09/12 06:13:51;;;;;;;18.10;8.57;;;;;;;;;;5016192;28;20401;-70
2023/09/12 06:16:16;;;;;;;13.63;8.05;;;;;;;;;;5021922;28;20029;-70
2023/09/12 06:18:41;;;;;;;21.27;10.43;;;;;;;;;;5008680;28;20451;-73
2023/09/12 06:21:08;;;;;;;21.50;8.77;;;;;;;;;;5024173;28;20044;-71
2023/09/12 06:23:33;;;;;;;38.47;8.32;;;;;;;;;;5015550;28;20041;-73
2023/09/12 06:25:59;;;;;;;18.70;9.13;;;;;;;;;;5014398;28;20025;-70
2023/09/12 06:28:28;;;;;;;30.42;8.68;;;;;;;;;;5016295;28;20046;-73
2023/09/12 06:30:53;;;;;;;24.83;8.05;;;;;;;;;;5006849;28;20040;-74
2023/09/12 06:33:18;;;;;;;29.15;8.10;;;;;;;;;;5004318;28;20026;-73
2023/09/12 06:35:43;;;;;;;22.45;8.30;;;;;;;;;;5008047;28;20022;-72
2023/09/12 06:38:08;;;;;;;21.25;7.85;;;;;;;;;;5008568;28;20056;-71
2023/09/12 06:40:34;;;;;;;20.30;8.02;;;;;;;;;;5009098;28;20022;-70
2023/09/12 06:42:59;;;;;;;24.35;7.82;;;;;;;;;;5008862;28;20018;-72
2023/09/12 06:45:24;;;;;;;22.45;8.38;;;;;;;;;;5008250;28;20022;-72
2023/09/12 06:47:50;;;;;;;21.50;8.23;;;;;;;;;;5007781;28;20069;-71
2023/09/12 06:50:15;;;;;;;23.85;8.32;;;;;;;;;;5004484;28;20087;-70
2023/09/12 06:52:40;;;;;;;20.60;7.60;;;;;;;;;;5009040;28;20037;-71
2023/09/12 06:55:07;;;;;;;35.55;7.93;;;;;;;;;;5009154;28;20040;-73
2023/09/12 06:57:32;;;;;;;26.25;8.43;;;;;;;;;;5004392;28;20037;-74
2023/09/12 06:59:58;;;;;;;25.97;9.93;;;;;;;;;;5004422;28;20097;-72
2023/09/12 07:02:23;;;;;;;31.10;8.00;;;;;;;;;;5009385;28;20464;-74
2023/09/12 07:04:48;;;;;;;20.17;7.53;;;;;;;;;;5007820;28;20018;-73
2023/09/12 07:07:14;;;;;;;38.88;8.93;;;;;;;;;;5008888;28;20122;-69
2023/09/12 07:09:40;;;;;;;16.63;8.27;;;;;;;;;;5006163;28;20069;-73
2023/09/12 07:12:05;;;;;;;20.98;7.75;;;;;;;;;;5008968;28;20018;-70
2023/09/12 07:14:31;;;;;;;26.05;8.82;;;;;;;;;;5009529;28;20336;-71
2023/09/12 07:16:56;;;;;;;24.23;8.80;;;;;;;;;;5008475;28;20060;-73
2023/09/12 07:19:21;;;;;;;23.65;8.50;;;;;;;;;;5012245;28;20032;-72
2023/09/12 07:21:46;;;;;;;22.45;8.50;;;;;;;;;;5008328;28;20065;-73
2023/09/12 07:24:12;;;;;;;27.75;8.05;;;;;;;;;;5027996;22;20061;-72
2023/09/12 07:26:37;;;;;;;21.27;7.93;;;;;;;;;;5019916;28;20037;-72
2023/09/12 07:29:05;;;;;;;29.08;7.63;;;;;;;;;;5021319;28;20021;-71
2023/09/12 07:31:30;;;;;;;29.73;8.05;;;;;;;;;;5029509;28;20057;-72
2023/09/12 07:33:55;;;;;;;19.00;7.93;;;;;;;;;;5023199;28;20475;-75
2023/09/12 07:36:20;;;;;;;20.45;7.65;;;;;;;;;;5021381;28;20095;-73
2023/09/12 07:38:47;;;;;;;29.02;7.90;;;;;;;;;;5021821;28;20583;-72
2023/09/12 07:41:12;;;;;;;25.55;6.95;;;;;;;;;;5020080;28;20044;-72
2023/09/12 07:43:37;;;;;;;24.20;7.32;;;;;;;;;;5020765;28;20029;-73
2023/09/12 07:46:03;;;;;;;34.75;7.53;;;;;;;;;;5023381;28;20103;-70
2023/09/12 07:48:29;;;;;;;23.23;7.38;;;;;;;;;;5022219;28;20394;-70
2023/09/12 07:50:54;;;;;;;19.02;6.90;;;;;;;;;;5025549;28;20040;-75
2023/09/12 07:53:19;;;;;;;20.75;7.65;;;;;;;;;;5026591;28;20395;-70
2023/09/12 07:55:47;;;;;;;20.10;7.32;;;;;;;;;;5026270;28;20300;-70
2023/09/12 07:58:14;;;;;;;26.73;8.15;;;;;;;;;;5025971;28;20080;-69
2023/09/12 08:00:39;;;;;;;18.33;6.45;;;;;;;;;;5024214;28;20510;-68
2023/09/12 08:03:04;;;;;;;21.40;7.13;;;;;;;;;;5026621;28;20029;-67
2023/09/12 08:05:29;;;;;;;23.58;8.57;;;;;;;;;;5026670;28;20446;-70
2023/09/12 08:07:55;;;;;;;20.25;8.20;;;;;;;;;;5025540;28;20096;-70
2023/09/12 08:10:20;;;;;;;21.77;8.68;;;;;;;;;;5024871;28;20021;-69
2023/09/12 08:12:45;;;;;;;33.38;10.63;;;;;;;;;;5026222;28;20497;-68
2023/09/12 08:15:10;;;;;;;18.87;8.47;;;;;;;;;;5026121;28;20111;-67
2023/09/12 08:17:36;;;;;;;22.58;8.77;;;;;;;;;;5023788;28;20255;-70
2023/09/12 08:20:01;;;;;;;28.88;9.63;;;;;;;;;;5024282;28;20025;-69
2023/09/12 08:22:26;;;;;;;21.65;9.30;;;;;;;;;;5026015;28;20147;-69
2023/09/12 08:24:51;;;;;;;34.08;10.48;;;;;;;;;;5026034;28;20095;-69
2023/09/12 08:27:16;;;;;;;29.42;9.40;;;;;;;;;;5025894;28;20225;-66
2023/09/12 08:29:44;;;;;;;21.92;9.95;;;;;;;;;;5022402;28;20044;-72
2023/09/12 08:32:09;;;;;;;29.75;11.13;;;;;;;;;;5026326;28;20026;-69
2023/09/12 08:34:35;;;;;;;27.02;10.05;;;;;;;;;;5025011;28;20025;-68
2023/09/12 08:37:00;;;;;;;25.83;10.48;;;;;;;;;;5025742;28;20029;-71
2023/09/12 08:39:27;;;;;;;24.80;10.20;;;;;;;;;;5025626;28;20375;-68
2023/09/12 08:41:53;;;;;;;34.88;10.85;;;;;;;;;;5022336;28;20100;-70
2023/09/12 08:44:19;;;;;;;33.38;9.80;;;;;;;;;;5025020;28;20543;-69
2023/09/12 08:46:44;;;;;;;19.10;10.18;;;;;;;;;;5025181;28;20065;-68
2023/09/12 08:49:10;;;;;;;27.52;11.10;;;;;;;;;;5025319;28;20136;-68
2023/09/12 08:51:39;;;;;;;32.42;9.43;;;;;;;;;;5023906;28;20048;-69
2023/09/12 08:54:05;;;;;;;24.55;11.35;;;;;;;;;;5024922;28;20499;-69
2023/09/12 08:56:31;;;;;;;21.45;11.60;;;;;;;;;;5024513;28;20326;-70
2023/09/12 08:58:57;;;;;;;29.05;12.55;;;;;;;;;;5024669;28;20067;-66
2023/09/12 09:01:23;;;;;;;34.35;12.00;;;;;;;;;;5023685;28;20231;-69
2023/09/12 09:03:49;;;;;;;19.73;10.93;;;;;;;;;;5022752;28;20451;-72
2023/09/12 09:06:15;;;;;;;29.05;12.15;;;;;;;;;;5026497;28;20107;-69
2023/09/12 09:08:41;;;;;;;24.30;12.57;;;;;;;;;;5025132;28;20091;-71
2023/09/12 09:11:07;;;;;;;37.10;12.45;;;;;;;;;;5023407;28;20072;-68
2023/09/12 09:13:32;;;;;;;33.47;12.57;;;;;;;;;;5024955;28;20499;-72
2023/09/12 09:16:10;;;;;;;36.67;12.15;;;;;;;;;;5025660;28;20405;-72
2023/09/12 09:18:54;;;;;;;25.92;11.15;;;;;;;;;;5024737;28;20037;-71
2023/09/12 09:21:24;;;;;;;26.63;11.07;;;;;;;;;;5023256;28;20124;-72
2023/09/12 09:23:50;;;;;;;24.23;12.38;;;;;;;;;;5024331;28;20360;-69
2023/09/12 09:26:15;;;;;;;29.92;12.85;;;;;;;;;;5023462;28;20044;-70
2023/09/12 09:28:40;;;;;;;33.00;11.75;;;;;;;;;;5024097;28;20025;-69
2023/09/12 09:31:15;;;;;;;26.77;11.40;;;;;;;;;;5022557;28;20109;-73
2023/09/12 09:33:40;;;;;;;35.67;12.27;;;;;;;;;;5023776;28;20435;-69
2023/09/12 09:36:06;;;;;;;28.10;11.38;;;;;;;;;;5024370;28;20029;-69
2023/09/12 09:38:34;;;;;;;24.05;11.38;;;;;;;;;;5024686;28;20112;-68
2023/09/12 09:40:59;;;;;;;27.90;12.88;;;;;;;;;;5023922;28;20025;-69
2023/09/12 09:43:24;;;;;;;28.35;12.45;;;;;;;;;;5024008;28;20105;-71
2023/09/12 09:45:50;;;;;;;29.02;12.75;;;;;;;;;;5024336;28;20044;-71
2023/09/12 09:48:23;;;;;;;24.23;12.57;;;;;;;;;;5023926;28;20028;-69
2023/09/12 09:50:49;;;;;;;25.58;11.85;;;;;;;;;;5022143;28;20038;-67
2023/09/12 09:53:14;;;;;;;26.23;11.95;;;;;;;;;;5024631;28;20136;-69
2023/09/12 09:55:40;;;;;;;31.40;11.68;;;;;;;;;;5024201;28;20034;-72
2023/09/12 09:58:05;;;;;;;36.72;12.55;;;;;;;;;;5023759;28;20025;-73
2023/09/12 10:00:33;;;;;;;23.58;13.20;;;;;;;;;;5022518;28;20116;-74
2023/09/12 10:02:59;;;;;;;39.92;11.73;;;;;;;;;;5022608;28;20372;-66
2023/09/12 10:05:24;;;;;;;36.67;10.90;;;;;;;;;;5023672;28;20025;-71
2023/09/12 10:07:50;;;;;;;32.67;11.18;;;;;;;;;;5024436;28;20030;-71
2023/09/12 10:10:16;;;;;;;35.75;11.57;;;;;;;;;;5023232;28;20021;-69
2023/09/12 10:13:01;;;;;;;32.95;11.20;;;;;;;;;;5023279;28;20029;-67
2023/09/12 10:15:28;;;;;;;30.83;11.57;;;;;;;;;;5023121;28;20033;-70
2023/09/12 10:17:58;;;;;;;23.23;10.50;;;;;;;;;;5022085;28;20045;-68
2023/09/12 10:20:44;;;;;;;26.50;11.45;;;;;;;;;;5020157;28;20402;-71
2023/09/12 10:23:20;;;;;;;27.48;9.80;;;;;;;;;;5023018;28;20030;-69
2023/09/12 10:25:45;;;;;;;28.67;10.32;;;;;;;;;;5023321;28;20041;-69
2023/09/12 10:28:10;;;;;;;25.20;10.48;;;;;;;;;;5023169;28;20086;-67
2023/09/12 10:30:36;;;;;;;30.17;10.75;;;;;;;;;;5022113;28;20100;-67
2023/09/12 10:35:37;;;;;;;30.48;9.90;;;;;;;;;;5452922;22;20049;-71
2023/09/12 10:38:05;;;;;;;24.25;9.68;;;;;;;;;;5020912;28;20114;-70
2023/09/12 10:40:30;;;;;;;;;;;;;;;;;;5007493;28;20141;-71
2023/09/12 10:42:57;;;;;;;18.50;9.05;;;;;;;;;;5010955;28;20000;-71
2023/09/12 10:45:22;;;;;;;20.77;9.13;;;;;;;;;;5011426;28;20065;-72
2023/09/12 10:47:47;;;;;;;26.92;8.98;;;;;;;;;;5014717;28;20068;-71
2023/09/12 10:50:13;;;;;;;26.52;9.18;;;;;;;;;;5015115;28;20104;-72
2023/09/12 10:52:40;;;;;;;19.67;9.07;;;;;;;;;;5012829;28;20025;-73
2023/09/12 10:55:06;;;;;;;34.97;9.98;;;;;;;;;;5015587;28;20010;-72
2023/09/12 10:57:32;;;;;;;23.38;9.20;;;;;;;;;;5015138;28;20033;-72
2023/09/12 11:00:10;;;;;;;34.33;9.65;;;;;;;;;;5015687;28;20025;-70
2023/09/12 11:02:36;;;;;;;29.33;8.52;;;;;;;;;;5018592;28;20017;-71
2023/09/12 11:05:05;;;;;;;31.77;9.07;;;;;;;;;;5011901;28;20428;-73
2023/09/12 11:07:31;;;;;;;24.02;8.68;;;;;;;;;;5011500;28;20021;-72
2023/09/12 11:10:20;;;;;;;21.80;9.60;;;;;;;;;;5013771;28;20157;-72
2023/09/12 11:12:49;;;;;;;38.90;9.30;;;;;;;;;;5004298;28;20044;-69
2023/09/12 11:15:15;;;;;;;24.90;8.63;;;;;;;;;;5014548;28;20067;-71
2023/09/12 11:17:44;;;;;;;27.85;7.97;;;;;;;;;;4999532;28;20026;-73
2023/09/12 11:20:10;;;;;;;19.50;8.50;;;;;;;;;;5012663;28;20469;-72
2023/09/12 11:22:47;;;;;;;36.45;8.93;;;;;;;;;;5016469;28;20149;-71
2023/09/12 11:25:26;;;;;;;29.33;8.10;;;;;;;;;;5013058;28;20045;-70
2023/09/12 11:27:51;;;;;;;28.15;7.82;;;;;;;;;;5014696;28;20040;-73
2023/09/12 11:30:20;;;;;;;21.77;7.72;;;;;;;;;;5009926;28;20047;-69
2023/09/12 11:32:47;;;;;;;44.72;8.30;;;;;;;;;;5015991;28;20033;-72
2023/09/12 11:35:13;;;;;;;30.63;8.82;;;;;;;;;;5011643;28;20029;-71
2023/09/12 11:37:38;;;;;;;21.05;7.25;;;;;;;;;;5013168;28;20025;-72
2023/09/12 11:40:12;;;;;;;19.38;6.97;;;;;;;;;;5013892;28;20043;-72
2023/09/12 11:42:41;;;;;;;18.20;7.97;;;;;;;;;;4999094;28;20026;-70
2023/09/12 11:45:10;;;;;;;26.00;7.75;;;;;;;;;;5009702;28;20014;-72
2023/09/12 11:47:41;;;;;;;21.73;8.30;;;;;;;;;;5017109;28;20052;-71
2023/09/12 11:50:07;;;;;;;18.30;7.35;;;;;;;;;;5012355;28;20018;-72
2023/09/12 11:52:35;;;;;;;20.42;7.63;;;;;;;;;;5012736;28;20408;-69
2023/09/12 11:55:01;;;;;;;20.83;7.15;;;;;;;;;;5011544;28;20588;-71
2023/09/12 11:57:26;;;;;;;41.13;8.03;;;;;;;;;;5016329;28;20104;-71
2023/09/12 11:59:52;;;;;;;25.20;8.45;;;;;;;;;;5010260;28;20560;-73
2023/09/12 12:02:18;;;;;;;23.50;7.82;;;;;;;;;;5018647;28;20025;-71
2023/09/12 12:04:44;;;;;;;25.80;8.18;;;;;;;;;;5010262;28;20085;-72
2023/09/12 12:07:09;;;;;;;18.63;7.35;;;;;;;;;;5014386;28;20084;-70
2023/09/12 12:09:35;;;;;;;24.45;7.65;;;;;;;;;;5015150;28;20068;-71
2023/09/12 12:12:08;;;;;;;21.98;8.13;;;;;;;;;;5004948;28;20132;-71
2023/09/12 12:14:34;;;;;;;20.25;7.53;;;;;;;;;;5016997;28;20017;-70
2023/09/12 12:17:05;;;;;;;20.75;7.15;;;;;;;;;;5012044;28;20037;-69
2023/09/12 12:19:30;;;;;;;23.52;7.07;;;;;;;;;;5012930;28;20017;-69
2023/09/12 12:21:55;;;;;;;26.15;7.70;;;;;;;;;;5010442;28;20028;-72
2023/09/12 12:24:20;;;;;;;24.30;6.78;;;;;;;;;;5014572;28;20030;-68
2023/09/12 12:26:46;;;;;;;24.00;7.10;;;;;;;;;;5017226;28;20029;-70
2023/09/12 12:29:11;;;;;;;20.17;7.27;;;;;;;;;;5013436;28;20263;-71
2023/09/12 12:31:37;;;;;;;23.30;7.10;;;;;;;;;;5011672;28;20258;-72
2023/09/12 12:34:03;;;;;;;26.88;7.22;;;;;;;;;;5013752;28;20022;-69
2023/09/12 12:36:29;;;;;;;19.80;7.68;;;;;;;;;;5016484;28;20064;-71
2023/09/12 12:38:54;;;;;;;30.70;7.10;;;;;;;;;;5020785;28;20064;-73
2023/09/12 12:41:22;;;;;;;35.08;10.02;;;;;;;;;;5020085;28;20044;-69
2023/09/12 12:43:49;;;;;;;27.98;8.45;;;;;;;;;;5020420;28;20033;-72
2023/09/12 12:46:15;;;;;;;29.42;7.28;;;;;;;;;;5022210;28;20029;-72
2023/09/12 12:48:44;;;;;;;17.60;6.38;;;;;;;;;;5020158;28;20113;-70
2023/09/12 12:51:30;;;;;;;21.77;7.32;;;;;;;;;;5021156;28;20077;-69
2023/09/12 12:54:02;;;;;;;16.65;5.53;;;;;;;;;;5016891;28;20009;-71
2023/09/12 12:56:28;;;;;;;28.48;6.90;;;;;;;;;;5020062;28;20029;-72
2023/09/12 12:59:02;;;;;;;35.40;6.78;;;;;;;;;;5021006;28;20033;-71
2023/09/12 13:01:28;;;;;;;25.92;5.72;;;;;;;;;;5018262;28;20109;-69
2023/09/12 13:03:54;;;;;;;19.10;5.65;;;;;;;;;;5020831;28;20480;-72
2023/09/12 13:06:19;;;;;;;19.05;7.30;;;;;;;;;;5003445;28;20262;-71
2023/09/12 13:08:45;;;;;;;28.15;6.88;;;;;;;;;;5019522;28;20600;-69
2023/09/12 13:11:12;;;;;;;32.60;6.50;;;;;;;;;;5015116;28;20033;-73
2023/09/12 13:13:37;;;;;;;22.80;7.13;;;;;;;;;;5021578;28;20025;-73
2023/09/12 13:16:04;;;;;;;29.67;6.60;;;;;;;;;;5001096;28;20120;-71
2023/09/12 13:18:30;;;;;;;26.90;6.35;;;;;;;;;;5003625;28;20041;-73
2023/09/12 13:20:55;;;;;;;28.25;6.72;;;;;;;;;;5017783;28;20109;-68
2023/09/12 13:23:20;;;;;;;23.33;7.10;;;;;;;;;;5016993;28;20148;-69
2023/09/12 13:25:46;;;;;;;19.90;5.60;;;;;;;;;;5019939;28;20290;-70
2023/09/12 13:28:11;;;;;;;27.13;6.43;;;;;;;;;;5020639;28;21532;-70
2023/09/12 13:30:36;;;;;;;21.17;6.37;;;;;;;;;;5016759;28;20262;-72
2023/09/12 13:33:01;;;;;;;28.58;5.95;;;;;;;;;;5019020;28;20269;-72
2023/09/12 13:35:27;;;;;;;26.40;5.57;;;;;;;;;;5018820;28;20048;-69
2023/09/12 13:37:52;;;;;;;18.15;6.13;;;;;;;;;;5018081;28;20020;-72
2023/09/12 13:40:17;;;;;;;27.98;5.68;;;;;;;;;;5019631;28;20109;-69
2023/09/12 13:42:42;;;;;;;21.50;6.63;;;;;;;;;;5013853;28;20256;-71
2023/09/12 13:45:08;;;;;;;16.13;5.30;;;;;;;;;;5015658;28;20260;-73
2023/09/12 13:47:33;;;;;;;22.48;6.20;;;;;;;;;;5015664;28;20030;-71
2023/09/12 13:49:58;;;;;;;32.00;7.07;;;;;;;;;;5002758;28;20021;-72
2023/09/12 13:52:26;;;;;;;22.97;6.13;;;;;;;;;;5017488;28;21332;-70
2023/09/12 13:54:52;;;;;;;17.98;5.35;;;;;;;;;;4993135;28;20808;-72
2023/09/12 13:57:17;;;;;;;21.23;5.87;;;;;;;;;;4977248;28;20126;-70
2023/09/12 13:59:42;;;;;;;23.20;6.05;;;;;;;;;;4989126;28;20355;-71
2023/09/12 14:02:07;;;;;;;21.83;6.10;;;;;;;;;;4988615;28;20072;-73
2023/09/12 14:04:33;;;;;;;23.17;5.63;;;;;;;;;;4992605;28;20062;-69
2023/09/12 14:06:58;;;;;;;23.95;5.88;;;;;;;;;;4995933;28;20290;-70
2023/09/12 14:09:23;;;;;;;14.57;5.15;;;;;;;;;;4997532;28;20022;-69
2023/09/12 14:11:48;;;;;;;25.07;6.27;;;;;;;;;;4989136;28;20066;-72
2023/09/12 14:14:13;;;;;;;20.37;5.53;;;;;;;;;;4989597;28;20331;-70
2023/09/12 14:16:39;;;;;;;24.38;5.78;;;;;;;;;;4989421;28;20350;-72
2023/09/12 14:19:04;;;;;;;31.43;5.90;;;;;;;;;;5007052;28;20026;-71
2023/09/12 14:21:29;;;;;;;20.17;5.93;;;;;;;;;;4989323;28;20276;-72
2023/09/12 14:23:54;;;;;;;18.70;5.20;;;;;;;;;;4988970;28;20058;-69
2023/09/12 14:26:20;;;;;;;18.13;5.35;;;;;;;;;;4991650;28;20338;-71